UAL172 KSFO-KLAX
Flight info
| Callsign | UAL172 |
|---|---|
| Flight time | 0h 52m |
| Altitude | 35000 |
| Route | WESLA5 SUSEY EBAYE BURGL IRNMN2 |
| Aircraft | B77W/H-SDE1E2E3FGHIJ2J3J4J5M1RWXY/LB1D1 |
Departure
| Time | 2026-04-24 01:22 |
|---|---|
| Airport | San Francisco International Airport (KSFO) |
Arrival
| Time | 2026-04-24 02:15 |
|---|---|
| Airport | Los Angeles International Airport (KLAX) |
| Time | Latitude | Longitude | Altitude | Speed | Heading |
|---|---|---|---|---|---|
| 2026-04-24 00:53 | 37.61877 | -122.38175 | 10 ft | 0 kts | 167° |
| 2026-04-24 01:08 | 37.61892 | -122.38183 | 31 ft | 2 kts | 141° |
| 2026-04-24 01:08 | 37.61902 | -122.38199 | 31 ft | 2 kts | 103° |
| 2026-04-24 01:08 | 37.61903 | -122.38219 | 28 ft | 2 kts | 72° |
| 2026-04-24 01:09 | 37.61896 | -122.38237 | 30 ft | 2 kts | 43° |
| 2026-04-24 01:09 | 37.61892 | -122.38242 | 30 ft | 0 kts | 34° |
| 2026-04-24 01:13 | 37.61905 | -122.38232 | 31 ft | 6 kts | 30° |
| 2026-04-24 01:13 | 37.61938 | -122.38202 | 27 ft | 6 kts | 56° |
| 2026-04-24 01:13 | 37.61940 | -122.38149 | 26 ft | 7 kts | 98° |
| 2026-04-24 01:13 | 37.61921 | -122.38094 | 30 ft | 7 kts | 117° |
| 2026-04-24 01:14 | 37.61907 | -122.38061 | 32 ft | 3 kts | 117° |
| 2026-04-24 01:14 | 37.61900 | -122.38043 | 26 ft | 0 kts | 118° |
| 2026-04-24 01:14 | 37.61899 | -122.38040 | 26 ft | 1 kts | 118° |
| 2026-04-24 01:14 | 37.61886 | -122.38009 | 26 ft | 11 kts | 116° |
| 2026-04-24 01:15 | 37.61840 | -122.37893 | 26 ft | 15 kts | 115° |
| 2026-04-24 01:15 | 37.61799 | -122.37770 | 27 ft | 12 kts | 110° |
| 2026-04-24 01:15 | 37.61769 | -122.37668 | 27 ft | 12 kts | 110° |
| 2026-04-24 01:15 | 37.61738 | -122.37569 | 27 ft | 12 kts | 112° |
| 2026-04-24 01:16 | 37.61703 | -122.37467 | 27 ft | 16 kts | 114° |
| 2026-04-24 01:16 | 37.61635 | -122.37309 | 28 ft | 19 kts | 120° |
| 2026-04-24 01:16 | 37.61574 | -122.37164 | 26 ft | 19 kts | 116° |
| 2026-04-24 01:16 | 37.61516 | -122.37025 | 27 ft | 17 kts | 119° |
| 2026-04-24 01:17 | 37.61448 | -122.36902 | 31 ft | 18 kts | 130° |
| 2026-04-24 01:17 | 37.61366 | -122.36772 | 26 ft | 20 kts | 123° |
| 2026-04-24 01:17 | 37.61299 | -122.36623 | 26 ft | 20 kts | 117° |
| 2026-04-24 01:17 | 37.61233 | -122.36464 | 25 ft | 21 kts | 118° |
| 2026-04-24 01:18 | 37.61169 | -122.36312 | 24 ft | 18 kts | 118° |
| 2026-04-24 01:18 | 37.61114 | -122.36174 | 25 ft | 18 kts | 116° |
| 2026-04-24 01:18 | 37.61076 | -122.36081 | 29 ft | 11 kts | 118° |
| 2026-04-24 01:18 | 37.61053 | -122.35996 | 25 ft | 9 kts | 91° |
| 2026-04-24 01:19 | 37.61079 | -122.35925 | 27 ft | 10 kts | 44° |
| 2026-04-24 01:19 | 37.61139 | -122.35883 | 26 ft | 8 kts | 24° |
| 2026-04-24 01:19 | 37.61170 | -122.35873 | 29 ft | 5 kts | 354° |
| 2026-04-24 01:19 | 37.61192 | -122.35899 | 26 ft | 5 kts | 306° |
| 2026-04-24 01:20 | 37.61211 | -122.35941 | 27 ft | 6 kts | 298° |
| 2026-04-24 01:20 | 37.61213 | -122.35944 | 27 ft | 0 kts | 298° |
| 2026-04-24 01:21 | 37.61217 | -122.35954 | 28 ft | 4 kts | 298° |
| 2026-04-24 01:21 | 37.61237 | -122.36001 | 26 ft | 14 kts | 298° |
| 2026-04-24 01:21 | 37.61416 | -122.36429 | 19 ft | 108 kts | 297° |
| 2026-04-24 01:22 | 37.61875 | -122.37526 | 54 ft | 182 kts | 297° |
| 2026-04-24 01:22 | 37.62499 | -122.38964 | 1346 ft | 191 kts | 298° |
| 2026-04-24 01:22 | 37.63184 | -122.40519 | 2703 ft | 215 kts | 297° |
| 2026-04-24 01:22 | 37.63854 | -122.42277 | 4265 ft | 226 kts | 285° |
| 2026-04-24 01:23 | 37.63816 | -122.44325 | 5779 ft | 250 kts | 249° |
| 2026-04-24 01:23 | 37.62786 | -122.46136 | 7094 ft | 267 kts | 218° |
| 2026-04-24 01:23 | 37.61166 | -122.47164 | 8927 ft | 258 kts | 194° |
| 2026-04-24 01:23 | 37.59361 | -122.47603 | 10330 ft | 270 kts | 177° |
| 2026-04-24 01:24 | 37.57556 | -122.47147 | 11728 ft | 264 kts | 153° |
| 2026-04-24 01:24 | 37.55909 | -122.46089 | 12936 ft | 272 kts | 157° |
| 2026-04-24 01:24 | 37.54052 | -122.45280 | 13602 ft | 294 kts | 152° |
| 2026-04-24 01:24 | 37.52374 | -122.43657 | 13853 ft | 317 kts | 131° |
| 2026-04-24 01:25 | 37.50807 | -122.41525 | 14063 ft | 345 kts | 130° |
| 2026-04-24 01:25 | 37.49135 | -122.39195 | 14266 ft | 373 kts | 130° |
| 2026-04-24 01:25 | 37.47344 | -122.36701 | 14730 ft | 391 kts | 130° |
| 2026-04-24 01:25 | 37.45511 | -122.34169 | 15460 ft | 400 kts | 131° |
| 2026-04-24 01:26 | 37.43614 | -122.31569 | 16311 ft | 407 kts | 131° |
| 2026-04-24 01:26 | 37.41682 | -122.28938 | 17194 ft | 413 kts | 132° |
| 2026-04-24 01:26 | 37.39711 | -122.26266 | 18058 ft | 419 kts | 133° |
| 2026-04-24 01:26 | 37.37711 | -122.23566 | 18800 ft | 427 kts | 133° |
| 2026-04-24 01:27 | 37.35666 | -122.20808 | 19518 ft | 434 kts | 133° |
| 2026-04-24 01:27 | 37.33597 | -122.18021 | 20214 ft | 440 kts | 134° |
| 2026-04-24 01:27 | 37.31496 | -122.15194 | 20999 ft | 444 kts | 134° |
| 2026-04-24 01:27 | 37.29369 | -122.12336 | 21785 ft | 449 kts | 134° |
| 2026-04-24 01:28 | 37.27232 | -122.09465 | 22508 ft | 455 kts | 134° |
| 2026-04-24 01:28 | 37.25046 | -122.06532 | 23175 ft | 462 kts | 135° |
| 2026-04-24 01:28 | 37.22837 | -122.03568 | 23776 ft | 468 kts | 135° |
| 2026-04-24 01:28 | 37.20591 | -122.00558 | 24310 ft | 474 kts | 135° |
| 2026-04-24 01:29 | 37.18326 | -121.97524 | 24873 ft | 479 kts | 135° |
| 2026-04-24 01:29 | 37.16037 | -121.94459 | 25445 ft | 483 kts | 135° |
| 2026-04-24 01:29 | 37.13755 | -121.91408 | 25974 ft | 488 kts | 135° |
| 2026-04-24 01:29 | 37.11421 | -121.88289 | 26496 ft | 494 kts | 135° |
| 2026-04-24 01:30 | 37.09056 | -121.85133 | 26985 ft | 499 kts | 136° |
| 2026-04-24 01:30 | 37.06671 | -121.81951 | 27506 ft | 503 kts | 136° |
| 2026-04-24 01:30 | 37.04260 | -121.78738 | 28015 ft | 507 kts | 136° |
| 2026-04-24 01:30 | 37.01835 | -121.75510 | 28492 ft | 512 kts | 136° |
| 2026-04-24 01:31 | 36.99389 | -121.72259 | 28984 ft | 516 kts | 136° |
| 2026-04-24 01:31 | 36.96910 | -121.68967 | 29414 ft | 520 kts | 136° |
| 2026-04-24 01:31 | 36.94424 | -121.65669 | 29856 ft | 523 kts | 136° |
| 2026-04-24 01:31 | 36.91922 | -121.62351 | 30391 ft | 523 kts | 136° |
| 2026-04-24 01:32 | 36.89424 | -121.59040 | 30946 ft | 521 kts | 136° |
| 2026-04-24 01:32 | 36.86943 | -121.55755 | 31537 ft | 519 kts | 137° |
| 2026-04-24 01:32 | 36.84502 | -121.52528 | 32085 ft | 516 kts | 137° |
| 2026-04-24 01:32 | 36.82041 | -121.49278 | 32617 ft | 515 kts | 137° |
| 2026-04-24 01:33 | 36.79582 | -121.46035 | 33108 ft | 514 kts | 137° |
| 2026-04-24 01:33 | 36.77127 | -121.42800 | 33609 ft | 513 kts | 137° |
| 2026-04-24 01:33 | 36.74673 | -121.39570 | 34100 ft | 512 kts | 137° |
| 2026-04-24 01:33 | 36.72223 | -121.36349 | 34498 ft | 511 kts | 137° |
| 2026-04-24 01:34 | 36.69782 | -121.33144 | 34817 ft | 511 kts | 137° |
| 2026-04-24 01:34 | 36.67293 | -121.29880 | 35051 ft | 515 kts | 138° |
| 2026-04-24 01:34 | 36.64845 | -121.26676 | 35089 ft | 517 kts | 138° |
| 2026-04-24 01:35 | 36.59903 | -121.20205 | 35103 ft | 514 kts | 138° |
| 2026-04-24 01:35 | 36.54990 | -121.13780 | 35093 ft | 511 kts | 138° |
| 2026-04-24 01:36 | 36.50089 | -121.07389 | 35094 ft | 510 kts | 138° |
| 2026-04-24 01:36 | 36.45186 | -121.01010 | 35086 ft | 510 kts | 138° |
| 2026-04-24 01:37 | 36.40282 | -120.94643 | 35075 ft | 510 kts | 138° |
| 2026-04-24 01:37 | 36.35367 | -120.88272 | 35073 ft | 512 kts | 138° |
| 2026-04-24 01:38 | 36.30445 | -120.81905 | 35078 ft | 511 kts | 138° |
| 2026-04-24 01:38 | 36.25548 | -120.75579 | 35073 ft | 510 kts | 138° |
| 2026-04-24 01:39 | 36.20625 | -120.69235 | 35057 ft | 510 kts | 139° |
| 2026-04-24 01:39 | 36.15706 | -120.62908 | 35063 ft | 510 kts | 139° |
| 2026-04-24 01:40 | 36.10778 | -120.56582 | 35064 ft | 510 kts | 139° |
| 2026-04-24 01:40 | 36.05841 | -120.50256 | 35046 ft | 510 kts | 139° |
| 2026-04-24 01:41 | 36.00922 | -120.43963 | 35059 ft | 509 kts | 139° |
| 2026-04-24 01:41 | 35.96022 | -120.37708 | 35047 ft | 510 kts | 139° |
| 2026-04-24 01:42 | 35.91095 | -120.31429 | 35054 ft | 510 kts | 139° |
| 2026-04-24 01:42 | 35.85921 | -120.25519 | 35059 ft | 503 kts | 148° |
| 2026-04-24 01:43 | 35.80124 | -120.20849 | 35053 ft | 497 kts | 155° |
| 2026-04-24 01:43 | 35.74181 | -120.16477 | 35051 ft | 497 kts | 155° |
| 2026-04-24 01:44 | 35.68273 | -120.12040 | 35053 ft | 496 kts | 154° |
| 2026-04-24 01:44 | 35.65370 | -120.09844 | 35022 ft | 481 kts | 154° |
| 2026-04-24 01:44 | 35.62568 | -120.07718 | 35018 ft | 466 kts | 155° |
| 2026-04-24 01:44 | 35.59859 | -120.05665 | 35018 ft | 450 kts | 155° |
| 2026-04-24 01:45 | 35.57218 | -120.03669 | 35032 ft | 440 kts | 155° |
| 2026-04-24 01:45 | 35.51993 | -119.99750 | 35051 ft | 441 kts | 155° |
| 2026-04-24 01:46 | 35.47638 | -119.96486 | 35050 ft | 441 kts | 155° |
| 2026-04-24 01:46 | 35.45036 | -119.94530 | 34916 ft | 436 kts | 155° |
| 2026-04-24 01:46 | 35.42467 | -119.92598 | 34551 ft | 433 kts | 155° |
| 2026-04-24 01:46 | 35.39872 | -119.90653 | 34233 ft | 439 kts | 155° |
| 2026-04-24 01:47 | 35.37243 | -119.88688 | 34108 ft | 449 kts | 155° |
| 2026-04-24 01:47 | 35.31976 | -119.84734 | 34046 ft | 439 kts | 155° |
| 2026-04-24 01:48 | 35.26831 | -119.80733 | 34027 ft | 439 kts | 150° |
| 2026-04-24 01:48 | 35.21980 | -119.76164 | 34037 ft | 442 kts | 148° |
| 2026-04-24 01:49 | 35.17117 | -119.71474 | 34041 ft | 447 kts | 148° |
| 2026-04-24 01:49 | 35.12206 | -119.66841 | 34024 ft | 445 kts | 149° |
| 2026-04-24 01:50 | 35.07325 | -119.62295 | 34031 ft | 444 kts | 149° |
| 2026-04-24 01:50 | 35.02414 | -119.57733 | 33730 ft | 441 kts | 149° |
| 2026-04-24 01:50 | 34.99977 | -119.55469 | 33276 ft | 443 kts | 149° |
| 2026-04-24 01:51 | 34.97501 | -119.53177 | 33257 ft | 450 kts | 149° |
| 2026-04-24 01:51 | 34.94978 | -119.50840 | 33143 ft | 461 kts | 149° |
| 2026-04-24 01:51 | 34.92396 | -119.48450 | 33019 ft | 470 kts | 148° |
| 2026-04-24 01:52 | 34.87085 | -119.43628 | 32999 ft | 483 kts | 149° |
| 2026-04-24 01:52 | 34.81582 | -119.38733 | 33016 ft | 494 kts | 149° |
| 2026-04-24 01:52 | 34.78816 | -119.36263 | 32877 ft | 491 kts | 149° |
| 2026-04-24 01:53 | 34.76080 | -119.33815 | 32354 ft | 487 kts | 149° |
| 2026-04-24 01:53 | 34.73328 | -119.31371 | 32037 ft | 493 kts | 149° |
| 2026-04-24 01:53 | 34.70532 | -119.28931 | 32065 ft | 497 kts | 149° |
| 2026-04-24 01:54 | 34.64924 | -119.24045 | 31793 ft | 494 kts | 149° |
| 2026-04-24 01:54 | 34.62155 | -119.21642 | 31463 ft | 485 kts | 150° |
| 2026-04-24 01:54 | 34.59424 | -119.19291 | 31152 ft | 476 kts | 150° |
| 2026-04-24 01:54 | 34.56773 | -119.17007 | 30639 ft | 463 kts | 150° |
| 2026-04-24 01:55 | 34.54166 | -119.14738 | 29732 ft | 458 kts | 149° |
| 2026-04-24 01:55 | 34.51601 | -119.12465 | 28672 ft | 454 kts | 149° |
| 2026-04-24 01:55 | 34.49093 | -119.10228 | 27818 ft | 440 kts | 149° |
| 2026-04-24 01:55 | 34.46665 | -119.08069 | 27210 ft | 424 kts | 149° |
| 2026-04-24 01:56 | 34.44330 | -119.05999 | 26603 ft | 408 kts | 149° |
| 2026-04-24 01:56 | 34.42063 | -119.04019 | 25944 ft | 395 kts | 150° |
| 2026-04-24 01:56 | 34.39856 | -119.02116 | 25199 ft | 386 kts | 150° |
| 2026-04-24 01:56 | 34.37676 | -119.00238 | 24371 ft | 382 kts | 149° |
| 2026-04-24 01:57 | 34.35556 | -118.98409 | 23567 ft | 378 kts | 149° |
| 2026-04-24 01:57 | 34.33430 | -118.96558 | 22632 ft | 374 kts | 148° |
| 2026-04-24 01:57 | 34.31358 | -118.94681 | 21757 ft | 370 kts | 148° |
| 2026-04-24 01:57 | 34.29323 | -118.92816 | 20890 ft | 365 kts | 148° |
| 2026-04-24 01:58 | 34.27281 | -118.90956 | 20031 ft | 361 kts | 148° |
| 2026-04-24 01:58 | 34.25308 | -118.89164 | 19198 ft | 358 kts | 148° |
| 2026-04-24 01:58 | 34.23335 | -118.87357 | 18395 ft | 354 kts | 148° |
| 2026-04-24 01:58 | 34.21389 | -118.85566 | 17536 ft | 350 kts | 147° |
| 2026-04-24 01:59 | 34.19463 | -118.83795 | 16716 ft | 346 kts | 147° |
| 2026-04-24 01:59 | 34.17549 | -118.82038 | 16287 ft | 343 kts | 147° |
| 2026-04-24 01:59 | 34.15689 | -118.80281 | 15737 ft | 339 kts | 144° |
| 2026-04-24 01:59 | 34.13924 | -118.78393 | 15015 ft | 336 kts | 141° |
| 2026-04-24 02:00 | 34.12214 | -118.76485 | 14271 ft | 333 kts | 140° |
| 2026-04-24 02:00 | 34.10520 | -118.74598 | 13473 ft | 330 kts | 140° |
| 2026-04-24 02:00 | 34.08837 | -118.72746 | 12692 ft | 325 kts | 141° |
| 2026-04-24 02:00 | 34.07172 | -118.70931 | 11962 ft | 319 kts | 140° |
| 2026-04-24 02:01 | 34.05539 | -118.69161 | 11216 ft | 313 kts | 140° |
| 2026-04-24 02:01 | 34.03960 | -118.67393 | 10522 ft | 308 kts | 133° |
| 2026-04-24 02:01 | 34.02897 | -118.65177 | 9792 ft | 308 kts | 106° |
| 2026-04-24 02:01 | 34.02570 | -118.62624 | 9333 ft | 308 kts | 95° |
| 2026-04-24 02:02 | 34.02362 | -118.60119 | 9107 ft | 303 kts | 96° |
| 2026-04-24 02:02 | 34.02133 | -118.57587 | 8995 ft | 302 kts | 96° |
| 2026-04-24 02:02 | 34.01898 | -118.55075 | 8909 ft | 300 kts | 96° |
| 2026-04-24 02:02 | 34.01670 | -118.52627 | 8646 ft | 287 kts | 96° |
| 2026-04-24 02:03 | 34.01233 | -118.47992 | 7642 ft | 272 kts | 96° |
| 2026-04-24 02:03 | 34.01044 | -118.45724 | 7352 ft | 273 kts | 89° |
| 2026-04-24 02:03 | 34.01276 | -118.43470 | 7060 ft | 273 kts | 76° |
| 2026-04-24 02:04 | 34.01704 | -118.41247 | 6646 ft | 271 kts | 76° |
| 2026-04-24 02:04 | 34.02123 | -118.39052 | 6178 ft | 266 kts | 76° |
| 2026-04-24 02:04 | 34.02500 | -118.36969 | 6017 ft | 245 kts | 77° |
| 2026-04-24 02:04 | 34.02828 | -118.35012 | 5897 ft | 233 kts | 80° |
| 2026-04-24 02:05 | 34.03038 | -118.33057 | 5610 ft | 238 kts | 82° |
| 2026-04-24 02:05 | 34.03229 | -118.31082 | 5239 ft | 242 kts | 82° |
| 2026-04-24 02:05 | 34.03433 | -118.29022 | 4848 ft | 246 kts | 82° |
| 2026-04-24 02:05 | 34.03665 | -118.26964 | 4400 ft | 250 kts | 82° |
| 2026-04-24 02:06 | 34.03901 | -118.24874 | 4031 ft | 252 kts | 82° |
| 2026-04-24 02:06 | 34.04131 | -118.22825 | 4006 ft | 252 kts | 82° |
| 2026-04-24 02:06 | 34.04364 | -118.20681 | 3993 ft | 253 kts | 82° |
| 2026-04-24 02:06 | 34.04591 | -118.18588 | 3983 ft | 250 kts | 82° |
| 2026-04-24 02:07 | 34.04818 | -118.16540 | 3924 ft | 249 kts | 82° |
| 2026-04-24 02:07 | 34.05052 | -118.14453 | 3795 ft | 251 kts | 82° |
| 2026-04-24 02:07 | 34.05280 | -118.12367 | 3691 ft | 251 kts | 82° |
| 2026-04-24 02:07 | 34.05502 | -118.10282 | 3581 ft | 250 kts | 85° |
| 2026-04-24 02:08 | 34.05294 | -118.08224 | 3363 ft | 252 kts | 114° |
| 2026-04-24 02:08 | 34.04244 | -118.06567 | 3211 ft | 250 kts | 145° |
| 2026-04-24 02:08 | 34.02671 | -118.05749 | 3099 ft | 245 kts | 170° |
| 2026-04-24 02:08 | 34.01064 | -118.05854 | 3050 ft | 225 kts | 207° |
| 2026-04-24 02:09 | 33.99920 | -118.07025 | 3054 ft | 214 kts | 236° |
| 2026-04-24 02:09 | 33.99170 | -118.08552 | 3058 ft | 215 kts | 246° |
| 2026-04-24 02:09 | 33.98574 | -118.10235 | 3057 ft | 216 kts | 249° |
| 2026-04-24 02:09 | 33.98098 | -118.11942 | 3049 ft | 215 kts | 260° |
| 2026-04-24 02:10 | 33.97885 | -118.13727 | 3046 ft | 214 kts | 264° |
| 2026-04-24 02:10 | 33.97719 | -118.15491 | 3053 ft | 215 kts | 264° |
| 2026-04-24 02:10 | 33.97544 | -118.17292 | 3099 ft | 214 kts | 263° |
| 2026-04-24 02:10 | 33.97364 | -118.19067 | 3079 ft | 217 kts | 264° |
| 2026-04-24 02:11 | 33.97183 | -118.20841 | 2918 ft | 210 kts | 263° |
| 2026-04-24 02:11 | 33.97007 | -118.22564 | 2741 ft | 203 kts | 264° |
| 2026-04-24 02:11 | 33.96840 | -118.24211 | 2586 ft | 192 kts | 264° |
| 2026-04-24 02:11 | 33.96683 | -118.25751 | 2375 ft | 177 kts | 263° |
| 2026-04-24 02:12 | 33.96537 | -118.27174 | 2208 ft | 168 kts | 264° |
| 2026-04-24 02:12 | 33.96393 | -118.28586 | 2069 ft | 171 kts | 264° |
| 2026-04-24 02:12 | 33.96249 | -118.29995 | 1822 ft | 169 kts | 264° |
| 2026-04-24 02:12 | 33.96107 | -118.31386 | 1626 ft | 166 kts | 264° |
| 2026-04-24 02:13 | 33.95966 | -118.32772 | 1379 ft | 166 kts | 264° |
| 2026-04-24 02:13 | 33.95827 | -118.34143 | 1164 ft | 164 kts | 264° |
| 2026-04-24 02:13 | 33.95687 | -118.35505 | 948 ft | 161 kts | 264° |
| 2026-04-24 02:13 | 33.95551 | -118.36838 | 697 ft | 163 kts | 262° |
| 2026-04-24 02:14 | 33.95416 | -118.38168 | 517 ft | 156 kts | 262° |
| 2026-04-24 02:14 | 33.95286 | -118.39447 | 280 ft | 154 kts | 263° |
| 2026-04-24 02:14 | 33.95160 | -118.40672 | 135 ft | 141 kts | 263° |
| 2026-04-24 02:14 | 33.95054 | -118.41707 | 127 ft | 100 kts | 263° |
| 2026-04-24 02:15 | 33.94991 | -118.42319 | 127 ft | 38 kts | 263° |
| 2026-04-24 02:15 | 33.94930 | -118.42557 | 129 ft | 17 kts | 239° |
| 2026-04-24 02:15 | 33.94878 | -118.42644 | 126 ft | 7 kts | 231° |
| 2026-04-24 02:15 | 33.94855 | -118.42675 | 125 ft | 0 kts | 229° |
| 2026-04-24 02:16 | 33.94829 | -118.42705 | 126 ft | 8 kts | 220° |
| 2026-04-24 02:16 | 33.94784 | -118.42744 | 125 ft | 8 kts | 212° |
| 2026-04-24 02:17 | 33.94728 | -118.42772 | 126 ft | 10 kts | 193° |
| 2026-04-24 02:17 | 33.94663 | -118.42776 | 128 ft | 7 kts | 179° |
| 2026-04-24 02:17 | 33.94636 | -118.42770 | 128 ft | 4 kts | 149° |
| 2026-04-24 02:17 | 33.94633 | -118.42706 | 128 ft | 14 kts | 80° |
| 2026-04-24 02:18 | 33.94646 | -118.42589 | 128 ft | 14 kts | 84° |
| 2026-04-24 02:18 | 33.94658 | -118.42472 | 129 ft | 14 kts | 83° |
| 2026-04-24 02:18 | 33.94671 | -118.42355 | 128 ft | 14 kts | 82° |
| 2026-04-24 02:18 | 33.94695 | -118.42141 | 129 ft | 32 kts | 83° |
| 2026-04-24 02:19 | 33.94715 | -118.41929 | 129 ft | 24 kts | 83° |
| 2026-04-24 02:19 | 33.94734 | -118.41736 | 128 ft | 20 kts | 83° |
| 2026-04-24 02:19 | 33.94750 | -118.41568 | 128 ft | 20 kts | 83° |
| 2026-04-24 02:19 | 33.94764 | -118.41442 | 127 ft | 8 kts | 78° |
| 2026-04-24 02:20 | 33.94782 | -118.41373 | 129 ft | 9 kts | 75° |
| 2026-04-24 02:20 | 33.94782 | -118.41327 | 128 ft | 4 kts | 108° |
| 2026-04-24 02:20 | 33.94766 | -118.41302 | 125 ft | 4 kts | 143° |
| 2026-04-24 02:20 | 33.94698 | -118.41285 | 127 ft | 12 kts | 174° |
| 2026-04-24 02:21 | 33.94616 | -118.41274 | 128 ft | 12 kts | 173° |
| 2026-04-24 02:21 | 33.94535 | -118.41261 | 128 ft | 12 kts | 172° |
| 2026-04-24 02:21 | 33.94452 | -118.41249 | 128 ft | 12 kts | 174° |
| 2026-04-24 02:21 | 33.94434 | -118.41247 | 128 ft | 3 kts | 174° |
| 2026-04-24 02:22 | 33.94374 | -118.41237 | 125 ft | 8 kts | 172° |
| 2026-04-24 02:22 | 33.94337 | -118.41232 | 126 ft | 9 kts | 172° |
| 2026-04-24 02:22 | 33.94275 | -118.41258 | 126 ft | 10 kts | 228° |
| 2026-04-24 02:22 | 33.94218 | -118.41312 | 125 ft | 10 kts | 186° |
| 2026-04-24 02:23 | 33.94149 | -118.41303 | 128 ft | 10 kts | 172° |
| 2026-04-24 02:23 | 33.94078 | -118.41292 | 128 ft | 10 kts | 172° |
| 2026-04-24 02:23 | 33.94008 | -118.41278 | 127 ft | 10 kts | 170° |
| 2026-04-24 02:23 | 33.93938 | -118.41273 | 128 ft | 10 kts | 176° |
| 2026-04-24 02:24 | 33.93868 | -118.41263 | 127 ft | 10 kts | 169° |
| 2026-04-24 02:24 | 33.93831 | -118.41223 | 127 ft | 6 kts | 102° |
| 2026-04-24 02:24 | 33.93842 | -118.41155 | 129 ft | 13 kts | 79° |
| 2026-04-24 02:24 | 33.93855 | -118.41041 | 128 ft | 14 kts | 83° |
| 2026-04-24 02:25 | 33.93867 | -118.40924 | 126 ft | 14 kts | 82° |
| 2026-04-24 02:25 | 33.93882 | -118.40819 | 128 ft | 9 kts | 75° |
| 2026-04-24 02:25 | 33.93907 | -118.40767 | 128 ft | 5 kts | 49° |
| 2026-04-24 02:25 | 33.93924 | -118.40746 | 127 ft | 2 kts | 45° |
| 2026-04-24 02:26 | 33.93933 | -118.40735 | 126 ft | 2 kts | 44° |
| 2026-04-24 02:26 | 33.93938 | -118.40729 | 126 ft | 0 kts | 44° |